createdAt,value
2023-04-12T00:01:29.070Z,16.92
2023-04-12T00:03:56.429Z,13.65
2023-04-12T00:06:32.700Z,9.10
2023-04-12T00:09:06.662Z,18.08
2023-04-12T00:11:34.458Z,13.40
2023-04-12T00:14:02.720Z,14.70
2023-04-12T00:16:29.836Z,14.25
2023-04-12T00:18:57.544Z,13.15
2023-04-12T00:21:24.458Z,25.17
2023-04-12T00:23:51.254Z,13.20
2023-04-12T00:26:17.932Z,17.08
2023-04-12T00:28:45.195Z,17.90
2023-04-12T00:31:11.964Z,24.90
2023-04-12T00:33:38.705Z,15.40
2023-04-12T00:36:06.040Z,12.75
2023-04-12T00:38:32.864Z,23.75
2023-04-12T00:41:00.632Z,21.90
2023-04-12T00:43:27.405Z,15.38
2023-04-12T00:45:54.882Z,15.20
2023-04-12T00:48:21.564Z,20.85
2023-04-12T00:50:48.214Z,17.52
2023-04-12T00:53:15.176Z,18.75
2023-04-12T00:55:45.663Z,19.23
2023-04-12T00:58:14.178Z,15.98
2023-04-12T01:00:40.936Z,22.55
2023-04-12T01:03:08.726Z,14.18
2023-04-12T01:05:40.697Z,21.75
2023-04-12T01:08:31.529Z,22.27
2023-04-12T01:11:02.532Z,17.45
2023-04-12T01:13:30.674Z,18.65
2023-04-12T01:16:12.957Z,24.25
2023-04-12T01:18:41.489Z,17.85
2023-04-12T01:21:15.716Z,24.00
2023-04-12T01:23:52.788Z,22.13
2023-04-12T01:26:38.335Z,15.63
2023-04-12T01:29:10.996Z,31.48
2023-04-12T01:31:40.148Z,24.65
2023-04-12T01:34:06.930Z,29.02
2023-04-12T01:36:33.846Z,23.55
2023-04-12T01:39:00.998Z,19.50
2023-04-12T01:41:27.763Z,21.60
2023-04-12T01:43:54.455Z,25.15
2023-04-12T01:46:22.919Z,17.98
2023-04-12T01:48:51.127Z,26.88
2023-04-12T01:51:44.754Z,25.20
2023-04-12T01:54:19.958Z,12.32
2023-04-12T01:56:47.498Z,21.73
2023-04-12T01:59:15.573Z,21.90
2023-04-12T02:01:43.362Z,22.60
2023-04-12T02:04:10.715Z,22.80
2023-04-12T02:06:37.625Z,25.83
2023-04-12T02:09:05.928Z,17.40
2023-04-12T02:11:32.653Z,24.17
2023-04-12T02:13:59.705Z,24.23
2023-04-12T02:16:29.284Z,30.85
2023-04-12T02:18:59.534Z,20.23
2023-04-12T02:21:27.818Z,21.00
2023-04-12T02:23:54.954Z,24.92
2023-04-12T02:26:23.436Z,19.60
2023-04-12T02:28:50.334Z,25.60
2023-04-12T02:31:18.844Z,27.92
2023-04-12T02:33:45.913Z,36.90
2023-04-12T02:36:12.875Z,26.95
2023-04-12T02:38:39.587Z,21.30
2023-04-12T02:41:06.738Z,36.33
2023-04-12T02:43:33.969Z,22.17
2023-04-12T02:46:00.960Z,18.08
2023-04-12T02:48:27.700Z,17.33
2023-04-12T02:50:54.493Z,29.90
2023-04-12T02:53:21.756Z,34.42
2023-04-12T02:55:48.417Z,28.27
2023-04-12T02:58:15.097Z,22.65
2023-04-12T03:00:43.745Z,27.20
2023-04-12T03:03:10.703Z,16.95
2023-04-12T03:05:38.077Z,22.13
2023-04-12T03:08:04.970Z,33.78
2023-04-12T03:10:31.665Z,25.42
2023-04-12T03:12:58.373Z,26.20
2023-04-12T03:15:25.267Z,30.73
2023-04-12T03:17:52.073Z,17.67
2023-04-12T03:20:20.333Z,21.20
2023-04-12T03:22:47.222Z,25.45
2023-04-12T03:25:13.946Z,29.55
2023-04-12T03:27:40.760Z,28.73
2023-04-12T03:30:08.047Z,27.00
2023-04-12T03:32:34.777Z,17.40
2023-04-12T03:35:01.673Z,18.65
2023-04-12T03:37:28.428Z,15.75
2023-04-12T03:39:55.534Z,13.35
2023-04-12T03:42:32.354Z,21.25
2023-04-12T03:45:00.670Z,16.35
2023-04-12T03:47:27.571Z,21.98
2023-04-12T03:50:10.245Z,26.25
2023-04-12T03:52:38.316Z,18.90
2023-04-12T03:55:07.848Z,12.80
2023-04-12T03:57:34.998Z,12.20
2023-04-12T04:00:02.419Z,14.18
2023-04-12T04:02:29.278Z,24.00
2023-04-12T04:04:56.447Z,12.93
2023-04-12T04:07:23.270Z,19.95
2023-04-12T04:09:50.237Z,18.88
2023-04-12T04:12:17.109Z,18.50
2023-04-12T04:14:44.196Z,23.05
2023-04-12T04:17:11.277Z,18.83
2023-04-12T04:19:38.370Z,14.13
2023-04-12T04:22:05.228Z,22.20
2023-04-12T04:24:31.890Z,18.05
2023-04-12T04:26:58.755Z,16.83
2023-04-12T04:29:26.144Z,14.65
2023-04-12T04:31:53.850Z,21.38
2023-04-12T04:34:22.277Z,16.67
2023-04-12T04:36:49.145Z,13.35
2023-04-12T04:39:15.906Z,18.25
2023-04-12T04:41:42.695Z,9.35
2023-04-12T04:44:10.526Z,10.00
2023-04-12T04:46:38.006Z,14.07
2023-04-12T04:49:05.444Z,17.92
2023-04-12T04:51:32.656Z,17.00
2023-04-12T04:53:59.822Z,12.02
2023-04-12T04:56:26.575Z,15.98
2023-04-12T04:58:55.473Z,8.25
2023-04-12T05:01:28.660Z,17.58
2023-04-12T05:03:55.998Z,24.10
2023-04-12T05:06:23.181Z,14.45
2023-04-12T05:08:50.136Z,16.48
2023-04-12T05:11:16.849Z,19.17
2023-04-12T05:13:43.637Z,19.55
2023-04-12T05:16:11.382Z,16.52
2023-04-12T05:18:38.514Z,16.58
2023-04-12T05:21:05.667Z,9.73
2023-04-12T05:23:37.101Z,16.20
2023-04-12T05:26:04.432Z,16.98
2023-04-12T05:28:31.405Z,24.05
2023-04-12T05:30:58.591Z,11.13
2023-04-12T05:33:25.436Z,18.05
2023-04-12T05:35:52.231Z,15.77
2023-04-12T05:38:19.075Z,15.93
2023-04-12T05:40:45.802Z,19.48
2023-04-12T05:43:13.017Z,8.65
2023-04-12T05:45:41.095Z,12.05
2023-04-12T05:48:08.184Z,25.77
2023-04-12T05:50:35.013Z,15.20
2023-04-12T05:53:01.881Z,20.55
2023-04-12T05:55:29.313Z,10.48
2023-04-12T05:57:56.039Z,11.90
2023-04-12T06:00:23.527Z,16.88
2023-04-12T06:02:50.760Z,12.75
2023-04-12T06:05:18.067Z,15.43
2023-04-12T06:07:48.080Z,17.30
2023-04-12T06:10:16.195Z,19.00
2023-04-12T06:12:43.091Z,21.80
2023-04-12T06:15:10.604Z,22.00
2023-04-12T06:17:37.558Z,12.90
2023-04-12T06:20:09.356Z,15.70
2023-04-12T06:22:36.856Z,11.68
2023-04-12T06:25:04.087Z,13.80
2023-04-12T06:27:30.990Z,19.05
2023-04-12T06:29:57.916Z,14.85
2023-04-12T06:32:24.862Z,12.57
2023-04-12T06:34:52.318Z,16.88
2023-04-12T06:37:19.098Z,23.67
2023-04-12T06:39:45.838Z,13.68
2023-04-12T06:42:14.727Z,13.00
2023-04-12T06:44:41.748Z,14.40
2023-04-12T06:47:09.510Z,18.42
2023-04-12T06:49:36.450Z,16.90
2023-04-12T06:52:05.107Z,11.88
2023-04-12T06:54:31.769Z,14.63
2023-04-12T06:56:58.516Z,23.40
2023-04-12T06:59:27.544Z,23.52
2023-04-12T07:01:54.357Z,17.08
2023-04-12T07:04:21.549Z,15.20
2023-04-12T07:06:48.429Z,11.30
2023-04-12T07:09:15.747Z,28.90
2023-04-12T07:11:43.466Z,18.35
2023-04-12T07:14:17.087Z,14.57
2023-04-12T07:16:43.912Z,13.93
2023-04-12T07:19:10.680Z,23.50
2023-04-12T07:21:37.497Z,11.27
2023-04-12T07:24:04.422Z,14.35
2023-04-12T07:26:31.480Z,22.48
2023-04-12T07:28:58.509Z,17.15
2023-04-12T07:31:25.600Z,25.55
2023-04-12T07:33:52.466Z,16.05
2023-04-12T07:36:21.279Z,13.07
2023-04-12T07:38:48.828Z,11.13
2023-04-12T07:41:15.765Z,17.88
2023-04-12T07:43:42.694Z,23.10
2023-04-12T07:46:09.640Z,19.08
2023-04-12T07:48:36.656Z,11.68
2023-04-12T07:51:03.827Z,10.30
2023-04-12T07:53:31.345Z,15.00
2023-04-12T07:55:58.493Z,10.07
2023-04-12T07:58:25.430Z,14.27
2023-04-12T08:00:53.601Z,9.75
2023-04-12T08:03:20.521Z,13.35
2023-04-12T08:05:53.163Z,27.00
2023-04-12T08:08:22.206Z,12.38
2023-04-12T08:10:49.369Z,13.73
2023-04-12T08:13:16.116Z,15.13
2023-04-12T08:15:43.836Z,16.35
2023-04-12T08:18:11.271Z,12.50
2023-04-12T08:20:40.448Z,7.25
2023-04-12T08:23:07.664Z,7.78
2023-04-12T08:25:34.438Z,18.52
2023-04-12T08:28:01.189Z,12.23
2023-04-12T08:30:28.385Z,6.82
2023-04-12T08:32:55.100Z,8.38
2023-04-12T08:35:23.008Z,13.38
2023-04-12T08:37:49.834Z,11.20
2023-04-12T08:40:16.801Z,12.40
2023-04-12T08:42:43.499Z,15.38
2023-04-12T08:45:11.798Z,13.13
2023-04-12T08:47:42.647Z,11.65
2023-04-12T08:50:13.044Z,15.80
2023-04-12T08:52:39.900Z,8.35
2023-04-12T08:55:07.086Z,15.00
2023-04-12T08:57:35.879Z,22.90
2023-04-12T09:00:03.928Z,11.95
2023-04-12T09:02:31.430Z,7.95
2023-04-12T09:04:58.740Z,18.33
2023-04-12T09:07:30.237Z,11.82
2023-04-12T09:09:58.103Z,13.52
2023-04-12T09:12:24.868Z,10.40
2023-04-12T09:15:12.505Z,4.28
2023-04-12T09:17:40.553Z,11.63
2023-04-12T09:20:27.812Z,6.72
2023-04-12T09:22:55.764Z,5.68
2023-04-12T09:25:45.312Z,8.57
2023-04-12T09:28:20.279Z,1.80
2023-04-12T09:30:51.607Z,5.40
2023-04-12T09:33:22.416Z,1.75
2023-04-12T09:35:49.356Z,4.60
2023-04-12T09:38:16.147Z,2.47
2023-04-12T09:40:42.955Z,2.55
2023-04-12T09:43:09.712Z,4.03
2023-04-12T09:45:38.848Z,4.07
2023-04-12T09:48:06.405Z,6.85
2023-04-12T09:50:33.741Z,3.22
2023-04-12T09:53:02.326Z,5.93
2023-04-12T09:55:30.449Z,4.65
2023-04-12T09:57:57.392Z,2.28
2023-04-12T10:00:25.550Z,4.90
2023-04-12T10:02:53.319Z,2.22
2023-04-12T10:05:25.959Z,3.47
2023-04-12T10:07:53.662Z,3.65
2023-04-12T10:10:21.190Z,6.47
2023-04-12T10:12:48.502Z,11.85
2023-04-12T10:15:18.604Z,3.80
2023-04-12T10:17:49.819Z,6.78
2023-04-12T10:20:17.366Z,11.05
2023-04-12T10:22:48.586Z,10.60
2023-04-12T10:25:18.970Z,3.67
2023-04-12T10:27:46.088Z,7.63
2023-04-12T10:30:26.036Z,2.92
2023-04-12T10:33:05.198Z,3.53
2023-04-12T10:36:00.714Z,4.25
2023-04-12T10:38:33.015Z,6.90
2023-04-12T10:41:17.330Z,4.68
2023-04-12T10:43:47.715Z,7.28
2023-04-12T10:46:37.906Z,8.93
2023-04-12T10:49:14.156Z,8.13
2023-04-12T10:52:01.150Z,5.63
2023-04-12T10:54:31.463Z,12.65
2023-04-12T10:56:58.297Z,4.72
2023-04-12T10:59:57.346Z,2.55
2023-04-12T11:02:24.391Z,6.03
2023-04-12T11:05:09.375Z,11.20
2023-04-12T11:07:41.143Z,6.30
2023-04-12T11:10:18.916Z,10.93
2023-04-12T11:12:57.134Z,9.05
2023-04-12T11:15:27.853Z,13.70
2023-04-12T11:17:55.555Z,6.68
2023-04-12T11:20:22.648Z,15.93
2023-04-12T11:22:51.322Z,10.32
2023-04-12T11:25:18.156Z,9.25
2023-04-12T11:27:54.971Z,9.85
2023-04-12T11:30:23.537Z,7.35
2023-04-12T11:32:50.340Z,8.95
2023-04-12T11:35:17.292Z,6.18
2023-04-12T11:37:44.396Z,7.63
2023-04-12T11:40:11.488Z,9.48
2023-04-12T11:42:39.627Z,7.63
2023-04-12T11:45:14.309Z,14.90
2023-04-12T11:47:44.545Z,15.93
2023-04-12T11:50:11.813Z,6.80
2023-04-12T11:52:38.917Z,5.32
2023-04-12T11:55:11.170Z,12.07
2023-04-12T11:57:38.499Z,7.72
2023-04-12T12:00:06.317Z,7.00
2023-04-12T12:02:39.233Z,13.27
2023-04-12T12:05:13.390Z,12.73
2023-04-12T12:07:40.206Z,22.65
2023-04-12T12:10:07.507Z,11.18
2023-04-12T12:12:35.091Z,14.48
2023-04-12T12:15:01.924Z,12.70
2023-04-12T12:17:29.117Z,11.50
2023-04-12T12:19:57.382Z,27.33
2023-04-12T12:22:24.367Z,14.05
2023-04-12T12:25:00.437Z,16.52
2023-04-12T12:27:40.753Z,12.30
2023-04-12T12:30:08.251Z,11.70
2023-04-12T12:32:37.142Z,11.77
2023-04-12T12:35:11.238Z,25.17
2023-04-12T12:37:38.017Z,11.85
2023-04-12T12:40:13.471Z,10.98
2023-04-12T12:42:50.716Z,12.98
2023-04-12T12:45:19.205Z,24.75
2023-04-12T12:47:56.474Z,16.75
2023-04-12T12:50:25.149Z,21.65
2023-04-12T12:52:52.090Z,26.88
2023-04-12T12:55:18.899Z,20.80
2023-04-12T12:57:55.232Z,15.98
2023-04-12T13:00:29.234Z,16.67
2023-04-12T13:02:56.457Z,14.95
2023-04-12T13:05:23.707Z,19.38
2023-04-12T13:07:50.491Z,17.92
2023-04-12T13:10:17.349Z,19.73
2023-04-12T13:12:44.514Z,17.75
2023-04-12T13:15:21.047Z,18.27
2023-04-12T13:17:49.516Z,15.07
2023-04-12T13:20:16.504Z,19.38
2023-04-12T13:22:43.287Z,16.25
2023-04-12T13:25:10.174Z,26.20
2023-04-12T13:27:37.970Z,17.92
2023-04-12T13:30:05.562Z,16.73
2023-04-12T13:32:34.626Z,20.60
2023-04-12T13:35:01.459Z,23.17
2023-04-12T13:37:28.205Z,17.80
2023-04-12T13:39:54.891Z,21.90
2023-04-12T13:42:22.808Z,11.60
2023-04-12T13:44:49.810Z,18.33
2023-04-12T13:47:17.868Z,11.23
2023-04-12T13:49:44.668Z,11.27
2023-04-12T13:52:11.432Z,17.48
2023-04-12T13:54:38.204Z,12.65
2023-04-12T13:57:05.838Z,14.63
2023-04-12T13:59:32.758Z,11.45
2023-04-12T14:02:00.663Z,12.57
2023-04-12T14:04:30.946Z,10.88
2023-04-12T14:06:58.804Z,17.77
2023-04-12T14:09:26.060Z,6.03
2023-04-12T14:11:55.233Z,8.73
2023-04-12T14:14:25.611Z,6.30
2023-04-12T14:16:53.772Z,9.35
2023-04-12T14:19:20.910Z,14.63
2023-04-12T14:21:48.415Z,15.57
2023-04-12T14:24:18.572Z,8.80
2023-04-12T14:26:45.403Z,8.50
2023-04-12T14:29:12.275Z,19.08
2023-04-12T14:31:39.267Z,13.25
2023-04-12T14:34:06.345Z,13.23
2023-04-12T14:36:33.446Z,7.75
2023-04-12T14:39:01.629Z,12.02
2023-04-12T14:41:29.403Z,17.58
2023-04-12T14:43:56.413Z,12.52
2023-04-12T14:46:25.675Z,12.55
2023-04-12T14:48:52.515Z,9.60
2023-04-12T14:51:19.530Z,8.75
2023-04-12T14:53:46.624Z,6.88
2023-04-12T14:56:23.990Z,5.93
2023-04-12T14:58:54.070Z,10.13
2023-04-12T15:01:21.788Z,14.90
2023-04-12T15:03:48.918Z,8.48
2023-04-12T15:06:15.771Z,6.35
2023-04-12T15:08:42.851Z,9.07
2023-04-12T15:11:10.093Z,5.60
2023-04-12T15:13:39.952Z,8.98
2023-04-12T15:16:08.817Z,6.97
2023-04-12T15:18:38.085Z,9.88
2023-04-12T15:21:13.899Z,16.23
2023-04-12T15:23:44.927Z,5.40
2023-04-12T15:26:14.058Z,11.15
2023-04-12T15:28:41.231Z,9.63
2023-04-12T15:31:09.258Z,10.35
2023-04-12T15:33:36.627Z,9.02
2023-04-12T15:36:04.015Z,6.63
2023-04-12T15:38:30.898Z,10.60
2023-04-12T15:40:59.087Z,6.35
2023-04-12T15:43:26.078Z,1.25
2023-04-12T15:45:54.916Z,1.35
2023-04-12T15:48:23.161Z,1.95
2023-04-12T15:50:50.887Z,1.27
2023-04-12T15:53:20.207Z,2.53
2023-04-12T15:55:47.525Z,10.15
2023-04-12T15:58:14.656Z,3.75
2023-04-12T16:00:42.193Z,3.28
2023-04-12T16:03:09.335Z,1.52
2023-04-12T16:05:36.453Z,5.15
2023-04-12T16:08:03.485Z,6.78
2023-04-12T16:10:30.404Z,1.58
2023-04-12T16:12:57.947Z,1.13
2023-04-12T16:15:24.806Z,1.73
2023-04-12T16:17:55.981Z,3.70
2023-04-12T16:20:23.007Z,1.17
2023-04-12T16:22:56.229Z,4.15
2023-04-12T16:25:24.126Z,1.43
2023-04-12T16:27:51.472Z,1.33
2023-04-12T16:30:18.664Z,1.60
2023-04-12T16:32:46.772Z,1.33
2023-04-12T16:35:15.025Z,0.65
2023-04-12T16:37:42.678Z,6.60
2023-04-12T16:40:12.910Z,3.83
2023-04-12T16:42:45.864Z,3.17
2023-04-12T16:45:14.927Z,2.95
2023-04-12T16:47:42.059Z,5.53
2023-04-12T16:50:09.654Z,2.90
2023-04-12T16:52:37.120Z,6.18
2023-04-12T16:55:04.232Z,5.90
2023-04-12T16:57:31.182Z,5.18
2023-04-12T16:59:58.005Z,3.55
2023-04-12T17:02:25.171Z,3.85
2023-04-12T17:04:52.107Z,4.57
2023-04-12T17:07:19.095Z,4.57
2023-04-12T17:09:45.924Z,9.25
2023-04-12T17:12:12.905Z,5.85
2023-04-12T17:14:39.832Z,3.35
2023-04-12T17:17:07.043Z,5.60
2023-04-12T17:19:33.968Z,7.97
2023-04-12T17:22:00.867Z,5.40
2023-04-12T17:24:28.977Z,6.60
2023-04-12T17:26:56.268Z,6.38
2023-04-12T17:29:23.077Z,4.82
2023-04-12T17:31:53.208Z,4.53
2023-04-12T17:34:21.870Z,7.57
2023-04-12T17:36:49.150Z,3.78
2023-04-12T17:39:16.280Z,4.28
2023-04-12T17:41:43.125Z,4.35
2023-04-12T17:44:13.235Z,3.00
2023-04-12T17:46:40.273Z,4.07
2023-04-12T17:49:08.885Z,6.32
2023-04-12T17:51:35.821Z,2.75
2023-04-12T17:54:03.637Z,4.55
2023-04-12T17:56:30.543Z,3.50
2023-04-12T17:58:57.809Z,4.18
2023-04-12T18:01:24.956Z,4.88
2023-04-12T18:03:51.973Z,4.95
2023-04-12T18:06:20.303Z,4.00
2023-04-12T18:08:47.295Z,6.30
2023-04-12T18:11:14.562Z,3.70
2023-04-12T18:13:41.936Z,3.63
2023-04-12T18:16:08.828Z,11.68
2023-04-12T18:18:36.130Z,2.22
2023-04-12T18:21:04.773Z,10.02
2023-04-12T18:23:31.967Z,5.22
2023-04-12T18:25:58.711Z,6.78
2023-04-12T18:28:25.419Z,11.48
2023-04-12T18:30:52.168Z,6.70
2023-04-12T18:33:18.861Z,6.20
2023-04-12T18:35:45.689Z,12.60
2023-04-12T18:38:12.445Z,1.70
2023-04-12T18:40:39.210Z,5.28
2023-04-12T18:43:06.181Z,4.32
2023-04-12T18:45:32.964Z,7.60
2023-04-12T18:48:00.268Z,5.88
2023-04-12T18:50:27.484Z,8.45
2023-04-12T18:52:54.284Z,4.97
2023-04-12T18:55:21.194Z,5.47
2023-04-12T18:57:49.312Z,5.82
2023-04-12T19:00:16.682Z,8.15
2023-04-12T19:02:43.630Z,7.45
2023-04-12T19:05:11.667Z,7.13
2023-04-12T19:07:38.441Z,7.15
2023-04-12T19:10:05.542Z,2.53
2023-04-12T19:12:32.308Z,9.77
2023-04-12T19:14:59.311Z,8.32
2023-04-12T19:17:27.841Z,7.43
2023-04-12T19:19:54.904Z,4.15
2023-04-12T19:22:21.698Z,8.68
2023-04-12T19:24:49.904Z,2.83
2023-04-12T19:27:16.824Z,4.43
2023-04-12T19:29:44.096Z,4.22
2023-04-12T19:32:13.715Z,4.07
2023-04-12T19:34:41.321Z,5.20
2023-04-12T19:37:08.323Z,5.82
2023-04-12T19:39:35.054Z,5.07
2023-04-12T19:42:02.290Z,3.60
2023-04-12T19:44:29.320Z,3.90
2023-04-12T19:46:56.089Z,2.72
2023-04-12T19:49:23.870Z,7.05
2023-04-12T19:51:53.670Z,3.92
2023-04-12T19:54:23.656Z,2.63
2023-04-12T19:56:50.591Z,4.35
2023-04-12T19:59:17.882Z,3.78
2023-04-12T20:01:50.625Z,6.53
2023-04-12T20:04:21.626Z,3.35
2023-04-12T20:06:50.029Z,2.65
2023-04-12T20:09:17.248Z,1.90
2023-04-12T20:11:44.057Z,1.67
2023-04-12T20:14:10.993Z,2.45
2023-04-12T20:16:38.102Z,1.60
2023-04-12T20:19:05.042Z,2.40
2023-04-12T20:21:32.289Z,6.63
2023-04-12T20:24:02.030Z,1.80
2023-04-12T20:26:31.674Z,0.95
2023-04-12T20:28:59.843Z,4.18
2023-04-12T20:31:27.112Z,1.85
2023-04-12T20:33:58.340Z,2.08
2023-04-12T20:36:26.418Z,2.55
2023-04-12T20:38:53.654Z,1.15
2023-04-12T20:41:20.503Z,0.85
2023-04-12T20:43:47.797Z,4.63
2023-04-12T20:46:17.120Z,3.00
2023-04-12T20:48:44.591Z,3.60
2023-04-12T20:51:11.848Z,3.33
2023-04-12T20:53:38.805Z,1.98
2023-04-12T20:56:06.738Z,2.45
2023-04-12T20:58:35.118Z,1.52
2023-04-12T21:01:04.961Z,2.00
2023-04-12T21:03:35.805Z,0.57
2023-04-12T21:06:02.832Z,1.20
2023-04-12T21:08:31.611Z,0.30
2023-04-12T21:10:58.754Z,1.05
2023-04-12T21:13:27.189Z,1.73
2023-04-12T21:15:54.172Z,1.67
2023-04-12T21:18:21.137Z,0.40
2023-04-12T21:20:48.387Z,5.57
2023-04-12T21:23:18.780Z,2.70
2023-04-12T21:25:48.267Z,2.45
2023-04-12T21:28:15.068Z,1.15
2023-04-12T21:30:42.025Z,1.42
2023-04-12T21:33:08.891Z,1.67
2023-04-12T21:35:35.710Z,1.35
2023-04-12T21:38:02.420Z,0.50
2023-04-12T21:40:29.394Z,1.00
2023-04-12T21:42:57.156Z,2.83
2023-04-12T21:45:25.346Z,0.35
2023-04-12T21:47:53.041Z,1.58
2023-04-12T21:50:19.871Z,0.82
2023-04-12T21:52:47.354Z,0.95
2023-04-12T21:55:14.220Z,0.85
2023-04-12T21:57:41.362Z,1.85
2023-04-12T22:00:09.924Z,1.58
2023-04-12T22:02:37.184Z,0.55
2023-04-12T22:05:04.432Z,4.40
2023-04-12T22:07:31.186Z,1.15
2023-04-12T22:09:58.681Z,0.35
2023-04-12T22:12:25.687Z,0.43
2023-04-12T22:14:52.630Z,1.38
2023-04-12T22:17:20.517Z,0.65
2023-04-12T22:19:47.325Z,0.52
2023-04-12T22:22:16.730Z,0.35
2023-04-12T22:24:44.099Z,0.47
2023-04-12T22:27:10.892Z,1.58
2023-04-12T22:29:37.954Z,0.63
2023-04-12T22:32:05.109Z,1.65
2023-04-12T22:34:32.544Z,0.40
2023-04-12T22:36:59.326Z,0.55
2023-04-12T22:39:26.481Z,0.22
2023-04-12T22:41:53.497Z,0.30
2023-04-12T22:44:23.607Z,1.25
2023-04-12T22:46:51.581Z,0.93
2023-04-12T22:49:18.335Z,0.75
2023-04-12T22:51:45.097Z,1.40
2023-04-12T22:54:12.024Z,0.68
2023-04-12T22:56:42.155Z,1.65
2023-04-12T22:59:09.286Z,0.38
2023-04-12T23:01:36.050Z,2.17
2023-04-12T23:04:02.886Z,0.28
2023-04-12T23:06:32.324Z,1.25
2023-04-12T23:09:00.156Z,0.68
2023-04-12T23:11:28.971Z,1.35
2023-04-12T23:13:55.763Z,4.28
2023-04-12T23:16:22.583Z,0.50
2023-04-12T23:18:49.906Z,1.85
2023-04-12T23:21:16.763Z,3.78
2023-04-12T23:23:43.712Z,0.60
2023-04-12T23:26:13.470Z,0.75
2023-04-12T23:28:40.416Z,1.48
2023-04-12T23:31:07.289Z,2.97
2023-04-12T23:33:34.182Z,1.30
2023-04-12T23:36:03.348Z,0.98
2023-04-12T23:38:33.933Z,2.28
2023-04-12T23:41:02.394Z,1.02
2023-04-12T23:43:29.687Z,3.13
2023-04-12T23:45:56.696Z,0.90
2023-04-12T23:48:23.727Z,0.68
2023-04-12T23:50:51.134Z,1.20
2023-04-12T23:53:18.474Z,0.47
2023-04-12T23:55:49.081Z,3.63
2023-04-12T23:58:15.853Z,0.28
